createdAt,value
2022-09-15T00:00:57.338Z,3.78
2022-09-15T00:03:24.268Z,4.00
2022-09-15T00:05:53.541Z,5.18
2022-09-15T00:08:21.061Z,5.20
2022-09-15T00:10:53.130Z,5.93
2022-09-15T00:13:20.394Z,4.27
2022-09-15T00:15:47.022Z,3.40
2022-09-15T00:18:13.798Z,4.03
2022-09-15T00:20:42.509Z,4.50
2022-09-15T00:23:10.386Z,3.75
2022-09-15T00:25:46.003Z,4.13
2022-09-15T00:28:13.848Z,5.15
2022-09-15T00:30:45.408Z,5.75
2022-09-15T00:33:13.012Z,4.32
2022-09-15T00:35:41.034Z,5.35
2022-09-15T00:38:09.353Z,6.00
2022-09-15T00:40:44.498Z,4.93
2022-09-15T00:43:11.886Z,5.00
2022-09-15T00:45:38.357Z,6.10
2022-09-15T00:48:06.292Z,6.05
2022-09-15T00:50:34.429Z,5.03
2022-09-15T00:53:05.159Z,5.85
2022-09-15T00:55:41.460Z,5.82
2022-09-15T00:58:14.055Z,6.63
2022-09-15T01:00:51.179Z,6.72
2022-09-15T01:03:17.822Z,6.07
2022-09-15T01:05:51.291Z,6.07
2022-09-15T01:08:26.616Z,6.80
2022-09-15T01:10:53.058Z,6.63
2022-09-15T01:13:19.397Z,6.45
2022-09-15T01:15:54.562Z,6.72
2022-09-15T01:18:39.762Z,6.57
2022-09-15T01:21:37.668Z,6.22
2022-09-15T01:24:23.006Z,6.07
2022-09-15T01:26:54.140Z,7.03
2022-09-15T01:29:47.692Z,7.07
2022-09-15T01:32:44.768Z,7.85
2022-09-15T01:35:36.573Z,7.53
2022-09-15T01:38:39.425Z,7.80
2022-09-15T01:41:13.042Z,6.93
2022-09-15T01:43:46.365Z,7.25
2022-09-15T01:46:15.183Z,8.38
2022-09-15T01:48:43.156Z,6.03
2022-09-15T01:51:10.262Z,6.03
2022-09-15T01:53:37.151Z,6.25
2022-09-15T01:56:11.320Z,7.80
2022-09-15T01:58:39.831Z,7.25
2022-09-15T02:01:17.230Z,6.60
2022-09-15T02:03:55.432Z,5.35
2022-09-15T02:06:31.626Z,3.95
2022-09-15T02:09:02.478Z,3.70
2022-09-15T02:11:30.303Z,3.13
2022-09-15T02:14:10.399Z,2.22
2022-09-15T02:16:42.405Z,1.65
2022-09-15T02:19:11.821Z,1.40
2022-09-15T02:21:50.927Z,1.30
2022-09-15T02:24:23.923Z,1.40
2022-09-15T02:29:21.062Z,1.00
2022-09-15T02:31:51.593Z,0.90
2022-09-15T02:34:26.597Z,1.10
2022-09-15T02:36:55.229Z,1.20
2022-09-15T02:39:27.486Z,1.40
2022-09-15T02:41:54.713Z,1.13
2022-09-15T02:44:22.125Z,1.20
2022-09-15T02:46:52.778Z,1.05
2022-09-15T02:49:55.680Z,1.13
2022-09-15T02:52:26.061Z,1.00
2022-09-15T02:54:52.467Z,1.20
2022-09-15T02:57:19.700Z,1.58
2022-09-15T03:00:05.477Z,0.95
2022-09-15T03:02:32.297Z,1.08
2022-09-15T03:04:58.849Z,1.20
2022-09-15T03:07:25.849Z,1.40
2022-09-15T03:09:52.454Z,1.70
2022-09-15T03:12:19.077Z,1.35
2022-09-15T03:14:46.923Z,1.45
2022-09-15T03:17:13.430Z,1.52
2022-09-15T03:19:40.457Z,1.85
2022-09-15T03:22:07.650Z,1.92
2022-09-15T03:24:34.506Z,1.88
2022-09-15T03:27:01.250Z,2.47
2022-09-15T03:29:29.317Z,2.00
2022-09-15T03:31:55.834Z,1.90
2022-09-15T03:34:22.368Z,1.85
2022-09-15T03:36:49.173Z,2.63
2022-09-15T03:39:15.542Z,2.33
2022-09-15T03:41:41.908Z,2.35
2022-09-15T03:44:08.385Z,2.60
2022-09-15T03:46:35.268Z,3.70
2022-09-15T03:49:05.258Z,3.63
2022-09-15T03:51:34.457Z,5.18
2022-09-15T03:54:02.652Z,5.68
2022-09-15T03:56:33.265Z,5.18
2022-09-15T03:59:02.086Z,5.85
2022-09-15T04:01:30.218Z,7.05
2022-09-15T04:03:57.777Z,7.93
2022-09-15T04:06:25.756Z,6.95
2022-09-15T04:08:53.414Z,8.18
2022-09-15T04:11:21.893Z,9.15
2022-09-15T04:13:49.012Z,10.30
2022-09-15T04:16:19.028Z,9.00
2022-09-15T04:18:45.642Z,10.80
2022-09-15T04:21:14.833Z,9.77
2022-09-15T04:23:42.652Z,12.63
2022-09-15T04:26:14.205Z,10.65
2022-09-15T04:28:40.616Z,12.18
2022-09-15T04:31:12.770Z,10.93
2022-09-15T04:33:40.733Z,13.82
2022-09-15T04:36:09.881Z,13.50
2022-09-15T04:38:36.551Z,12.95
2022-09-15T04:41:07.230Z,13.30
2022-09-15T04:43:34.057Z,13.52
2022-09-15T04:46:00.707Z,12.02
2022-09-15T04:48:27.647Z,11.80
2022-09-15T04:50:54.538Z,15.93
2022-09-15T04:53:21.302Z,21.10
2022-09-15T04:55:47.821Z,16.42
2022-09-15T04:58:14.225Z,12.20
2022-09-15T05:00:45.693Z,11.13
2022-09-15T05:03:13.862Z,9.90
2022-09-15T05:05:41.460Z,8.88
2022-09-15T05:08:08.080Z,8.68
2022-09-15T05:10:34.820Z,7.88
2022-09-15T05:13:01.300Z,6.90
2022-09-15T05:15:27.652Z,7.18
2022-09-15T05:17:54.012Z,6.22
2022-09-15T05:20:20.423Z,7.03
2022-09-15T05:22:46.819Z,5.60
2022-09-15T05:25:13.486Z,5.28
2022-09-15T05:27:40.341Z,4.85
2022-09-15T05:30:34.809Z,5.57
2022-09-15T05:32:54.153Z,6.28
2022-09-15T05:35:20.538Z,5.30
2022-09-15T05:37:46.905Z,4.75
2022-09-15T05:40:13.373Z,3.85
2022-09-15T05:42:40.315Z,5.07
2022-09-15T05:45:07.530Z,4.25
2022-09-15T05:47:34.018Z,3.88
2022-09-15T05:50:00.382Z,4.22
2022-09-15T05:52:26.791Z,3.53
2022-09-15T05:54:58.323Z,5.25
2022-09-15T05:57:25.501Z,4.00
2022-09-15T05:59:51.885Z,4.20
2022-09-15T06:02:18.634Z,4.63
2022-09-15T06:04:45.061Z,3.97
2022-09-15T06:07:11.500Z,4.07
2022-09-15T06:09:38.043Z,4.68
2022-09-15T06:12:04.842Z,5.45
2022-09-15T06:14:31.233Z,4.32
2022-09-15T06:16:57.701Z,4.70
2022-09-15T06:19:24.060Z,5.05
2022-09-15T06:21:50.852Z,4.60
2022-09-15T06:24:17.241Z,4.97
2022-09-15T06:26:43.923Z,5.30
2022-09-15T06:29:11.840Z,5.60
2022-09-15T06:31:38.422Z,4.50
2022-09-15T06:34:05.273Z,4.63
2022-09-15T06:36:32.350Z,4.07
2022-09-15T06:38:58.822Z,4.07
2022-09-15T06:41:25.535Z,4.38
2022-09-15T06:43:52.964Z,3.85
2022-09-15T06:46:22.406Z,3.25
2022-09-15T06:48:49.142Z,4.90
2022-09-15T06:51:17.389Z,4.68
2022-09-15T06:53:44.210Z,3.67
2022-09-15T06:56:14.387Z,3.67
2022-09-15T06:58:42.480Z,3.45
2022-09-15T07:01:12.134Z,3.83
2022-09-15T07:03:41.188Z,5.40
2022-09-15T07:06:08.882Z,4.38
2022-09-15T07:08:35.418Z,4.28
2022-09-15T07:11:01.981Z,4.28
2022-09-15T07:13:28.335Z,4.20
2022-09-15T07:15:59.497Z,3.45
2022-09-15T07:18:26.889Z,3.70
2022-09-15T07:20:59.339Z,3.83
2022-09-15T07:23:26.085Z,3.47
2022-09-15T07:25:52.464Z,3.80
2022-09-15T07:28:19.072Z,3.70
2022-09-15T07:30:50.406Z,3.95
2022-09-15T07:33:16.890Z,3.75
2022-09-15T07:35:43.604Z,3.10
2022-09-15T07:38:10.543Z,3.83
2022-09-15T07:40:38.359Z,3.30
2022-09-15T07:43:05.889Z,3.55
2022-09-15T07:45:33.502Z,3.15
2022-09-15T07:47:59.889Z,3.92
2022-09-15T07:50:26.239Z,2.88
2022-09-15T07:52:56.185Z,2.97
2022-09-15T07:55:23.365Z,3.63
2022-09-15T07:58:00.232Z,3.75
2022-09-15T08:00:26.925Z,3.50
2022-09-15T08:02:53.928Z,2.97
2022-09-15T08:05:20.379Z,3.47
2022-09-15T08:07:46.805Z,2.72
2022-09-15T08:10:13.478Z,2.65
2022-09-15T08:12:40.941Z,3.50
2022-09-15T08:15:07.749Z,2.85
2022-09-15T08:17:34.711Z,2.47
2022-09-15T08:20:01.560Z,2.90
2022-09-15T08:22:27.960Z,3.20
2022-09-15T08:24:54.440Z,3.53
2022-09-15T08:27:20.849Z,3.80
2022-09-15T08:29:47.292Z,4.15
2022-09-15T08:32:13.634Z,4.00
2022-09-15T08:34:40.014Z,3.85
2022-09-15T08:37:06.427Z,4.10
2022-09-15T08:39:32.820Z,5.43
2022-09-15T08:42:01.426Z,7.47
2022-09-15T08:44:38.197Z,6.55
2022-09-15T08:47:12.681Z,7.97
2022-09-15T08:49:58.360Z,7.63
2022-09-15T08:52:49.268Z,6.78
2022-09-15T08:55:25.725Z,8.85
2022-09-15T08:57:55.454Z,8.52
2022-09-15T09:00:21.840Z,9.18
2022-09-15T09:03:18.845Z,9.40
2022-09-15T09:05:49.448Z,9.07
2022-09-15T09:08:56.022Z,7.72
2022-09-15T09:11:38.324Z,9.20
2022-09-15T09:14:18.675Z,7.97
2022-09-15T09:17:07.805Z,6.60
2022-09-15T09:20:03.614Z,5.70
2022-09-15T09:22:35.852Z,6.35
2022-09-15T09:25:16.077Z,5.88
2022-09-15T09:27:50.778Z,8.23
2022-09-15T09:30:19.773Z,7.22
2022-09-15T09:33:32.774Z,7.40
2022-09-15T09:36:02.108Z,7.53
2022-09-15T09:38:32.066Z,7.15
2022-09-15T09:41:02.344Z,6.93
2022-09-15T09:43:30.486Z,8.15
2022-09-15T09:45:57.018Z,7.82
2022-09-15T09:48:28.588Z,8.18
2022-09-15T09:50:55.698Z,7.70
2022-09-15T09:53:28.974Z,7.82
2022-09-15T09:56:16.202Z,8.80
2022-09-15T09:58:43.050Z,8.43
2022-09-15T10:01:15.954Z,8.85
2022-09-15T10:06:19.093Z,7.97
2022-09-15T10:09:03.055Z,8.60
2022-09-15T10:11:49.627Z,10.88
2022-09-15T10:14:27.608Z,9.43
2022-09-15T10:17:15.357Z,7.88
2022-09-15T10:19:55.428Z,8.27
2022-09-15T10:22:30.555Z,9.65
2022-09-15T10:24:58.993Z,9.25
2022-09-15T10:27:31.838Z,8.82
2022-09-15T10:30:16.672Z,9.40
2022-09-15T10:32:43.273Z,9.27
2022-09-15T10:35:15.154Z,11.07
2022-09-15T10:38:11.588Z,8.98
2022-09-15T10:40:51.126Z,8.98
2022-09-15T10:43:23.368Z,9.15
2022-09-15T10:46:01.503Z,7.35
2022-09-15T10:48:43.716Z,8.63
2022-09-15T10:51:44.091Z,10.02
2022-09-15T10:54:16.491Z,9.02
2022-09-15T10:56:48.197Z,8.35
2022-09-15T10:59:24.385Z,8.45
2022-09-15T11:02:05.792Z,8.35
2022-09-15T11:04:50.430Z,8.52
2022-09-15T11:07:54.052Z,7.90
2022-09-15T11:10:37.355Z,7.68
2022-09-15T11:13:22.075Z,8.18
2022-09-15T11:16:26.238Z,7.93
2022-09-15T11:19:04.619Z,7.90
2022-09-15T11:21:47.617Z,8.20
2022-09-15T11:24:29.065Z,9.23
2022-09-15T11:27:15.218Z,8.45
2022-09-15T11:29:47.983Z,8.95
2022-09-15T11:32:25.501Z,9.60
2022-09-15T11:35:00.261Z,9.05
2022-09-15T11:37:38.573Z,9.23
2022-09-15T11:40:16.156Z,9.23
2022-09-15T11:43:05.966Z,7.78
2022-09-15T11:45:42.241Z,8.57
2022-09-15T11:48:17.099Z,8.27
2022-09-15T11:50:46.293Z,7.78
2022-09-15T11:53:31.910Z,8.55
2022-09-15T11:56:29.342Z,7.53
2022-09-15T11:59:07.716Z,6.93
2022-09-15T12:01:48.509Z,6.63
2022-09-15T12:04:32.266Z,6.63
2022-09-15T12:07:32.637Z,6.70
2022-09-15T12:10:06.956Z,5.13
2022-09-15T12:12:35.446Z,4.47
2022-09-15T12:15:02.110Z,5.40
2022-09-15T12:17:35.564Z,5.30
2022-09-15T12:20:19.779Z,5.20
2022-09-15T12:23:00.402Z,5.35
2022-09-15T12:25:35.770Z,6.15
2022-09-15T12:28:24.314Z,6.15
2022-09-15T12:31:12.670Z,5.70
2022-09-15T12:33:42.174Z,7.00
2022-09-15T12:36:47.741Z,4.47
2022-09-15T12:39:29.039Z,5.43
2022-09-15T12:42:18.475Z,5.95
2022-09-15T12:45:40.769Z,5.20
2022-09-15T12:48:11.877Z,5.15
2022-09-15T12:50:42.603Z,5.75
2022-09-15T12:53:25.525Z,5.53
2022-09-15T12:55:58.665Z,4.90
2022-09-15T13:01:19.731Z,5.35
2022-09-15T13:03:46.515Z,5.75
2022-09-15T13:06:23.512Z,5.43
2022-09-15T13:09:02.036Z,5.30
2022-09-15T13:11:36.771Z,5.03
2022-09-15T13:14:03.231Z,5.60
2022-09-15T13:16:40.956Z,5.25
2022-09-15T13:19:12.231Z,4.97
2022-09-15T13:21:58.458Z,6.43
2022-09-15T13:24:37.993Z,5.90
2022-09-15T13:27:07.164Z,5.68
2022-09-15T13:29:45.996Z,5.55
2022-09-15T13:33:01.982Z,4.93
2022-09-15T13:35:53.991Z,5.03
2022-09-15T13:38:58.077Z,5.00
2022-09-15T13:41:46.538Z,5.20
2022-09-15T13:44:27.879Z,5.15
2022-09-15T13:47:09.806Z,4.80
2022-09-15T13:50:22.097Z,5.15
2022-09-15T13:53:15.010Z,5.18
2022-09-15T13:55:43.935Z,4.82
2022-09-15T14:01:12.460Z,4.65
2022-09-15T14:03:41.937Z,4.47
2022-09-15T14:06:12.754Z,5.25
2022-09-15T14:08:41.835Z,4.93
2022-09-15T14:11:13.607Z,4.22
2022-09-15T14:13:49.357Z,5.10
2022-09-15T14:16:23.629Z,4.30
2022-09-15T14:18:52.989Z,4.50
2022-09-15T14:21:27.893Z,4.22
2022-09-15T14:23:57.891Z,5.30
2022-09-15T14:26:29.300Z,3.88
2022-09-15T14:29:01.314Z,4.88
2022-09-15T14:31:42.219Z,4.13
2022-09-15T14:34:17.753Z,3.97
2022-09-15T14:36:47.634Z,3.78
2022-09-15T14:39:21.814Z,4.15
2022-09-15T14:41:49.906Z,4.55
2022-09-15T14:45:56.111Z,5.07
2022-09-15T14:47:26.521Z,4.35
2022-09-15T14:50:32.855Z,4.78
2022-09-15T14:53:05.745Z,4.88
2022-09-15T14:55:32.070Z,3.65
2022-09-15T14:58:12.647Z,4.85
2022-09-15T15:00:51.725Z,4.07
2022-09-15T15:03:48.105Z,5.03
2022-09-15T15:06:34.849Z,4.55
2022-09-15T15:09:18.807Z,4.30
2022-09-15T15:11:45.795Z,5.53
2022-09-15T15:14:14.141Z,5.55
2022-09-15T15:16:52.402Z,4.65
2022-09-15T15:19:32.109Z,5.65
2022-09-15T15:22:18.912Z,6.20
2022-09-15T15:24:48.844Z,4.35
2022-09-15T15:27:33.618Z,3.78
2022-09-15T15:30:30.293Z,4.53
2022-09-15T15:33:02.251Z,4.20
2022-09-15T15:35:30.018Z,4.13
2022-09-15T15:38:25.318Z,3.88
2022-09-15T15:41:00.748Z,4.22
2022-09-15T15:43:28.768Z,4.38
2022-09-15T15:46:01.162Z,4.35
2022-09-15T15:48:34.018Z,3.63
2022-09-15T15:51:05.454Z,3.53
2022-09-15T15:53:31.980Z,3.55
2022-09-15T15:56:00.059Z,2.90
2022-09-15T15:58:26.861Z,3.13
2022-09-15T16:00:56.358Z,2.83
2022-09-15T16:03:24.227Z,3.75
2022-09-15T16:05:53.152Z,3.10
2022-09-15T16:08:31.792Z,3.60
2022-09-15T16:11:00.228Z,3.90
2022-09-15T16:13:26.726Z,3.22
2022-09-15T16:15:54.153Z,3.17
2022-09-15T16:18:21.303Z,2.40
2022-09-15T16:20:47.875Z,3.35
2022-09-15T16:23:18.306Z,3.38
2022-09-15T16:26:05.454Z,3.60
2022-09-15T16:28:31.981Z,3.83
2022-09-15T16:30:58.745Z,4.10
2022-09-15T16:33:26.065Z,3.40
2022-09-15T16:36:06.636Z,3.50
2022-09-15T16:38:34.138Z,3.72
2022-09-15T16:41:01.671Z,3.50
2022-09-15T16:43:28.360Z,3.40
2022-09-15T16:45:55.093Z,5.70
2022-09-15T16:48:21.678Z,4.10
2022-09-15T16:51:09.566Z,3.80
2022-09-15T16:53:38.389Z,2.80
2022-09-15T16:56:06.335Z,3.92
2022-09-15T16:58:33.723Z,3.63
2022-09-15T17:01:00.203Z,3.15
2022-09-15T17:03:27.418Z,3.15
2022-09-15T17:05:59.415Z,4.00
2022-09-15T17:08:29.365Z,3.80
2022-09-15T17:10:57.664Z,3.03
2022-09-15T17:13:27.901Z,2.95
2022-09-15T17:15:57.162Z,3.50
2022-09-15T17:18:23.775Z,3.38
2022-09-15T17:20:51.727Z,3.17
2022-09-15T17:23:28.512Z,3.10
2022-09-15T17:25:58.910Z,4.20
2022-09-15T17:28:28.702Z,3.88
2022-09-15T17:31:00.064Z,3.65
2022-09-15T17:33:27.751Z,3.63
2022-09-15T17:35:54.317Z,3.67
2022-09-15T17:38:21.848Z,3.05
2022-09-15T17:40:49.721Z,3.10
2022-09-15T17:43:21.982Z,3.38
2022-09-15T17:45:49.604Z,2.80
2022-09-15T17:48:16.605Z,3.03
2022-09-15T17:50:43.803Z,2.75
2022-09-15T17:53:14.105Z,3.03
2022-09-15T17:55:41.075Z,2.90
2022-09-15T17:58:08.566Z,3.40
2022-09-15T18:00:37.525Z,3.22
2022-09-15T18:03:12.897Z,3.25
2022-09-15T18:05:39.411Z,3.85
2022-09-15T18:08:05.792Z,3.30
2022-09-15T18:10:34.469Z,3.05
2022-09-15T18:13:02.246Z,3.60
2022-09-15T18:15:31.601Z,4.78
2022-09-15T18:18:02.680Z,4.45
2022-09-15T18:20:31.519Z,3.67
2022-09-15T18:22:58.885Z,5.05
2022-09-15T18:25:34.424Z,3.58
2022-09-15T18:28:01.897Z,4.32
2022-09-15T18:30:33.129Z,3.53
2022-09-15T18:32:59.901Z,3.28
2022-09-15T18:35:26.637Z,3.25
2022-09-15T18:38:00.009Z,3.47
2022-09-15T18:40:28.503Z,3.00
2022-09-15T18:42:56.430Z,3.47
2022-09-15T18:45:22.925Z,3.63
2022-09-15T18:47:50.918Z,4.07
2022-09-15T18:50:20.213Z,3.30
2022-09-15T18:52:47.299Z,2.92
2022-09-15T18:55:17.404Z,3.40
2022-09-15T18:57:44.471Z,2.95
2022-09-15T19:00:22.999Z,2.85
2022-09-15T19:02:49.845Z,3.50
2022-09-15T19:05:16.991Z,2.92
2022-09-15T19:07:44.720Z,3.08
2022-09-15T19:10:13.368Z,3.17
2022-09-15T19:12:40.069Z,2.80
2022-09-15T19:15:10.894Z,2.80
2022-09-15T19:17:38.480Z,2.63
2022-09-15T19:20:06.729Z,2.70
2022-09-15T19:22:34.129Z,2.35
2022-09-15T19:25:00.706Z,2.17
2022-09-15T19:27:27.263Z,2.13
2022-09-15T19:29:53.631Z,2.20
2022-09-15T19:32:20.923Z,2.88
2022-09-15T19:34:47.908Z,2.28
2022-09-15T19:37:18.813Z,1.90
2022-09-15T19:39:45.931Z,2.05
2022-09-15T19:42:12.893Z,1.90
2022-09-15T19:44:40.805Z,2.22
2022-09-15T19:47:07.539Z,2.70
2022-09-15T19:49:34.105Z,2.45
2022-09-15T19:52:00.513Z,2.00
2022-09-15T19:54:29.354Z,1.92
2022-09-15T19:56:56.245Z,2.00
2022-09-15T19:59:28.706Z,2.33
2022-09-15T20:01:56.835Z,2.13
2022-09-15T20:04:23.346Z,2.13
2022-09-15T20:06:49.783Z,1.92
2022-09-15T20:09:16.905Z,1.80
2022-09-15T20:11:43.490Z,1.95
2022-09-15T20:14:10.030Z,1.92
2022-09-15T20:16:36.816Z,2.20
2022-09-15T20:19:04.086Z,1.88
2022-09-15T20:21:49.909Z,2.47
2022-09-15T20:24:18.196Z,2.00
2022-09-15T20:26:44.727Z,2.58
2022-09-15T20:29:11.300Z,1.88
2022-09-15T20:31:38.102Z,2.10
2022-09-15T20:34:05.975Z,2.38
2022-09-15T20:36:34.105Z,2.42
2022-09-15T20:39:03.180Z,2.17
2022-09-15T20:41:33.645Z,2.45
2022-09-15T20:44:00.841Z,1.92
2022-09-15T20:46:31.280Z,2.42
2022-09-15T20:48:57.718Z,2.50
2022-09-15T20:51:26.713Z,2.28
2022-09-15T20:53:55.074Z,2.20
2022-09-15T20:56:25.256Z,1.90
2022-09-15T20:58:53.170Z,1.70
2022-09-15T21:01:22.710Z,2.13
2022-09-15T21:03:49.368Z,2.90
2022-09-15T21:06:18.841Z,1.95
2022-09-15T21:08:47.380Z,1.88
2022-09-15T21:11:15.738Z,2.15
2022-09-15T21:13:43.408Z,1.98
2022-09-15T21:16:15.246Z,2.20
2022-09-15T21:18:44.391Z,2.30
2022-09-15T21:21:20.226Z,2.40
2022-09-15T21:23:48.999Z,2.63
2022-09-15T21:26:56.310Z,2.40
2022-09-15T21:29:23.290Z,2.00
2022-09-15T21:31:50.353Z,2.70
2022-09-15T21:34:17.022Z,2.45
2022-09-15T21:36:43.358Z,1.75
2022-09-15T21:39:09.975Z,2.20
2022-09-15T21:41:36.421Z,2.47
2022-09-15T21:44:03.581Z,2.20
2022-09-15T21:46:31.250Z,1.90
2022-09-15T21:48:59.325Z,2.17
2022-09-15T21:51:28.288Z,2.20
2022-09-15T21:53:56.581Z,1.90
2022-09-15T21:56:24.265Z,1.88
2022-09-15T21:58:50.908Z,2.08
2022-09-15T22:01:25.195Z,2.03
2022-09-15T22:04:00.148Z,2.17
2022-09-15T22:06:33.200Z,2.38
2022-09-15T22:11:27.708Z,1.90
2022-09-15T22:13:54.504Z,2.42
2022-09-15T22:16:23.506Z,1.77
2022-09-15T22:18:50.907Z,1.77
2022-09-15T22:21:23.339Z,1.67
2022-09-15T22:23:51.681Z,1.55
2022-09-15T22:26:20.580Z,2.25
2022-09-15T22:28:47.816Z,2.22
2022-09-15T22:31:17.292Z,2.30
2022-09-15T22:33:44.197Z,2.22
2022-09-15T22:36:29.316Z,1.77
2022-09-15T22:39:03.664Z,2.42
2022-09-15T22:41:35.145Z,2.35
2022-09-15T22:44:02.268Z,1.98
2022-09-15T22:46:28.705Z,2.28
2022-09-15T22:48:55.259Z,2.03
2022-09-15T22:51:21.630Z,2.17
2022-09-15T22:53:48.025Z,2.38
2022-09-15T22:56:21.453Z,2.08
2022-09-15T22:58:49.264Z,2.00
2022-09-15T23:01:21.971Z,2.25
2022-09-15T23:04:00.755Z,2.15
2022-09-15T23:06:30.504Z,2.30
2022-09-15T23:08:59.511Z,2.25
2022-09-15T23:11:27.896Z,1.88
2022-09-15T23:13:55.357Z,1.98
2022-09-15T23:16:23.965Z,2.00
2022-09-15T23:18:50.919Z,2.10
2022-09-15T23:21:18.154Z,2.00
2022-09-15T23:23:45.990Z,2.72
2022-09-15T23:26:17.238Z,2.42
2022-09-15T23:28:43.711Z,3.03
2022-09-15T23:31:11.895Z,2.30
2022-09-15T23:33:39.346Z,2.05
2022-09-15T23:36:08.637Z,2.40
2022-09-15T23:38:36.563Z,2.67
2022-09-15T23:41:03.115Z,1.55
2022-09-15T23:43:29.531Z,2.25
2022-09-15T23:45:56.263Z,2.10
2022-09-15T23:48:23.463Z,1.92
2022-09-15T23:50:50.068Z,2.47
2022-09-15T23:53:16.793Z,2.35
2022-09-15T23:55:43.973Z,1.88
2022-09-15T23:58:10.929Z,1.60
